Fort Fairfield, Maine
Current Conditions -  °F | °C
As of 9:54 PM on Saturday 25 Oct 2014 (Local Time) from KCAR Reporting Station
Overcast Overcast  
Wind Chill: 42°   Ceiling: 200
Heat Index: 42°   Visibility: 10mi
Dew Point: 40°   Wind: 3mph
Humidity: 92%   Direction: 120°ESE
Pressure: 29.49"   Gusts: NA
Location:  46.77°N, 67.83°W
Report Text: KCAR 260154Z AUTO 12003KT 10SM OVC002 06/04 A2949 RMK AO2 CIG 002V005 SLP992 T00560044
Loading
Personal Weather Stations






























Interactive Weather Map
Tropical Storm Tracking
New forecast layout! Learn more

10-Day Weather Forecast

Advertisements
Track Severe Weather on mobile